Time;durP1;ratioP1;P1;durP2;ratioP2;P2;SDS_P1;SDS_P2;PMS_P1;PMS_P2;Temp;Humidity;BMP_temperature;BMP_pressure;BME280_temperature;BME280_humidity;BME280_pressure;Samples;Min_cycle;Max_cycle;Signal;HPM_P1;HPM_P2
2022/02/12 00:00:07;;;;;;;29.23;14.05;;;;;;;;;;5023339;28;20040;-47
2022/02/12 00:02:33;;;;;;;30.02;17.00;;;;;;;;;;5023075;28;20033;-47
2022/02/12 00:04:59;;;;;;;33.15;18.73;;;;;;;;;;5023128;28;20124;-49
2022/02/12 00:07:25;;;;;;;24.55;13.93;;;;;;;;;;5023080;28;20030;-52
2022/02/12 00:09:51;;;;;;;25.85;10.98;;;;;;;;;;5022857;28;20025;-51
2022/02/12 00:12:17;;;;;;;12.02;6.32;;;;;;;;;;5022921;28;20032;-51
2022/02/12 00:14:43;;;;;;;21.10;9.63;;;;;;;;;;5023468;28;20022;-52
2022/02/12 00:17:10;;;;;;;19.95;9.45;;;;;;;;;;5022678;28;20040;-51
2022/02/12 00:19:38;;;;;;;20.73;11.00;;;;;;;;;;5022568;28;20557;-51
2022/02/12 00:22:04;;;;;;;28.17;16.23;;;;;;;;;;5022761;28;20068;-51
2022/02/12 00:24:33;;;;;;;17.08;8.23;;;;;;;;;;5022515;28;20135;-52
2022/02/12 00:26:59;;;;;;;18.13;9.38;;;;;;;;;;5022441;28;20025;-51
2022/02/12 00:29:25;;;;;;;9.02;5.13;;;;;;;;;;5023560;28;20242;-52
2022/02/12 00:31:51;;;;;;;14.00;7.10;;;;;;;;;;5022059;28;20050;-52
2022/02/12 00:34:17;;;;;;;10.13;5.63;;;;;;;;;;5023493;28;20037;-52
2022/02/12 00:36:45;;;;;;;16.85;8.10;;;;;;;;;;5022249;28;20350;-51
2022/02/12 00:39:13;;;;;;;16.77;8.30;;;;;;;;;;5023574;28;20036;-51
2022/02/12 00:41:39;;;;;;;33.13;18.23;;;;;;;;;;5022357;28;20292;-52
2022/02/12 00:44:05;;;;;;;32.72;17.23;;;;;;;;;;5022384;28;20626;-51
2022/02/12 00:46:32;;;;;;;30.67;17.38;;;;;;;;;;5022522;28;20041;-51
2022/02/12 00:48:58;;;;;;;17.10;9.10;;;;;;;;;;5021965;28;20075;-51
2022/02/12 00:51:26;;;;;;;16.55;8.85;;;;;;;;;;5023065;28;20021;-52
2022/02/12 00:53:52;;;;;;;24.75;12.68;;;;;;;;;;5023127;28;20029;-53
2022/02/12 00:56:18;;;;;;;18.58;10.50;;;;;;;;;;5021976;28;20025;-52
2022/02/12 00:58:44;;;;;;;8.82;3.22;;;;;;;;;;5021831;28;20573;-53
2022/02/12 01:01:10;;;;;;;33.95;17.70;;;;;;;;;;5021910;28;20186;-53
2022/02/12 01:03:37;;;;;;;14.73;7.07;;;;;;;;;;5021815;28;20116;-53
2022/02/12 01:06:05;;;;;;;28.52;15.73;;;;;;;;;;5021796;28;20701;-52
2022/02/12 01:08:31;;;;;;;15.50;8.13;;;;;;;;;;5021592;28;20040;-52
2022/02/12 01:10:59;;;;;;;21.58;11.85;;;;;;;;;;5032724;28;20034;-53
2022/02/12 01:13:26;;;;;;;16.83;9.27;;;;;;;;;;5023056;28;20114;-52
2022/02/12 01:15:52;;;;;;;13.25;6.20;;;;;;;;;;5021784;28;20017;-53
2022/02/12 01:18:18;;;;;;;21.90;11.70;;;;;;;;;;5021624;28;20037;-53
2022/02/12 01:20:46;;;;;;;26.58;14.57;;;;;;;;;;5021782;28;20025;-53
2022/02/12 01:23:15;;;;;;;33.67;19.25;;;;;;;;;;5021743;28;20036;-53
2022/02/12 01:25:41;;;;;;;37.58;20.65;;;;;;;;;;5021508;28;20052;-52
2022/02/12 01:28:07;;;;;;;28.70;15.73;;;;;;;;;;5020799;28;20025;-52
2022/02/12 01:30:33;;;;;;;21.15;11.30;;;;;;;;;;5022344;28;20060;-52
2022/02/12 01:32:59;;;;;;;17.88;10.05;;;;;;;;;;5021766;28;20021;-52
2022/02/12 01:35:25;;;;;;;28.13;15.02;;;;;;;;;;5021638;28;20385;-53
2022/02/12 01:37:52;;;;;;;18.08;8.90;;;;;;;;;;5021512;28;20036;-52
2022/02/12 01:40:21;;;;;;;45.00;26.20;;;;;;;;;;5021141;28;20747;-51
2022/02/12 01:42:48;;;;;;;30.02;14.52;;;;;;;;;;5021535;28;20026;-52
2022/02/12 01:45:14;;;;;;;38.25;21.23;;;;;;;;;;5021676;28;20017;-52
2022/02/12 01:47:40;;;;;;;8.95;5.03;;;;;;;;;;5021550;28;20037;-52
2022/02/12 01:50:07;;;;;;;30.92;16.27;;;;;;;;;;5022184;28;20521;-52
2022/02/12 01:52:36;;;;;;;18.23;10.13;;;;;;;;;;5021290;28;20032;-52
2022/02/12 01:55:03;;;;;;;26.35;13.55;;;;;;;;;;5021375;28;20028;-52
2022/02/12 01:57:31;;;;;;;20.85;11.02;;;;;;;;;;5020946;28;20434;-52
2022/02/12 01:59:57;;;;;;;26.27;13.27;;;;;;;;;;5021359;28;20060;-52
2022/02/12 02:02:24;;;;;;;7.50;4.43;;;;;;;;;;5021532;28;20220;-51
2022/02/12 02:04:50;;;;;;;42.22;22.08;;;;;;;;;;5021192;28;20071;-52
2022/02/12 02:07:17;;;;;;;29.38;16.58;;;;;;;;;;5022030;28;20094;-53
2022/02/12 02:09:43;;;;;;;34.92;18.67;;;;;;;;;;5021023;28;20464;-52
2022/02/12 02:12:10;;;;;;;16.38;6.85;;;;;;;;;;5021250;28;20507;-52
2022/02/12 02:14:45;;;;;;;10.98;5.97;;;;;;;;;;5021333;28;20026;-52
2022/02/12 02:17:11;;;;;;;7.03;3.42;;;;;;;;;;5021071;28;20052;-52
2022/02/12 02:19:37;;;;;;;19.42;10.85;;;;;;;;;;5021544;28;20311;-51
2022/02/12 02:22:04;;;;;;;14.23;7.10;;;;;;;;;;5021042;28;20021;-52
2022/02/12 02:24:31;;;;;;;32.03;17.30;;;;;;;;;;5020899;28;20029;-51
2022/02/12 02:27:10;;;;;;;22.83;12.07;;;;;;;;;;5021053;28;20171;-52
2022/02/12 02:29:39;;;;;;;8.57;4.30;;;;;;;;;;5020651;28;20115;-52
2022/02/12 02:32:06;;;;;;;17.80;8.95;;;;;;;;;;5032260;28;20412;-53
2022/02/12 02:34:32;;;;;;;23.92;13.55;;;;;;;;;;5033128;28;20458;-53
2022/02/12 02:36:58;;;;;;;25.17;14.07;;;;;;;;;;5032768;28;20025;-53
2022/02/12 02:39:27;;;;;;;13.80;6.88;;;;;;;;;;5036626;28;20061;-52
2022/02/12 02:41:53;;;;;;;7.38;3.47;;;;;;;;;;5036699;28;20171;-53
2022/02/12 02:44:21;;;;;;;28.38;16.45;;;;;;;;;;5036549;28;20079;-53
2022/02/12 02:46:47;;;;;;;18.20;10.65;;;;;;;;;;5036700;28;20480;-53
2022/02/12 02:49:13;;;;;;;37.97;22.63;;;;;;;;;;5036592;28;20100;-53
2022/02/12 02:57:08;;;;;;;22.65;12.73;;;;;;;;;;5036469;28;21976;-53
2022/02/12 02:59:39;;;;;;;21.17;11.90;;;;;;;;;;5036311;28;20544;-53
2022/02/12 03:02:05;;;;;;;34.95;18.75;;;;;;;;;;5036366;28;20044;-53
2022/02/12 03:04:31;;;;;;;17.52;10.38;;;;;;;;;;5036740;28;20477;-53
2022/02/12 03:06:57;;;;;;;21.10;11.10;;;;;;;;;;5036180;28;20432;-54
2022/02/12 03:09:26;;;;;;;12.88;6.40;;;;;;;;;;5036365;28;20029;-53
2022/02/12 03:11:53;;;;;;;10.13;4.22;;;;;;;;;;5036155;28;20477;-53
2022/02/12 03:14:21;;;;;;;20.90;12.00;;;;;;;;;;5036288;28;20025;-53
2022/02/12 03:16:47;;;;;;;12.50;7.43;;;;;;;;;;5036038;28;20052;-53
2022/02/12 03:19:13;;;;;;;17.77;8.45;;;;;;;;;;5036049;28;20033;-53
2022/02/12 03:21:39;;;;;;;17.23;9.30;;;;;;;;;;5036157;28;20455;-53
2022/02/12 03:24:05;;;;;;;15.15;9.40;;;;;;;;;;5036415;28;20020;-53
2022/02/12 03:26:32;;;;;;;20.73;10.82;;;;;;;;;;5035944;28;20036;-53
2022/02/12 03:28:58;;;;;;;6.63;3.08;;;;;;;;;;5035486;28;20511;-54
2022/02/12 03:31:24;;;;;;;23.95;12.52;;;;;;;;;;5035889;28;20051;-54
2022/02/12 03:33:50;;;;;;;27.60;13.88;;;;;;;;;;5035781;28;20021;-54
2022/02/12 03:36:16;;;;;;;20.73;12.02;;;;;;;;;;5036016;28;20385;-54
2022/02/12 03:38:47;;;;;;;20.88;12.40;;;;;;;;;;5035757;28;20112;-54
2022/02/12 03:41:14;;;;;;;21.17;10.80;;;;;;;;;;5035600;28;20020;-53
2022/02/12 03:43:40;;;;;;;18.23;9.23;;;;;;;;;;5035382;28;20029;-53
2022/02/12 03:46:08;;;;;;;20.23;9.40;;;;;;;;;;5035583;28;20576;-53
2022/02/12 03:48:34;;;;;;;12.82;6.82;;;;;;;;;;5035788;28;20377;-54
2022/02/12 03:51:00;;;;;;;23.40;11.65;;;;;;;;;;5035001;28;20029;-53
2022/02/12 03:53:26;;;;;;;14.20;8.43;;;;;;;;;;5035511;28;20421;-53
2022/02/12 03:55:52;;;;;;;31.67;18.00;;;;;;;;;;5035420;28;20049;-53
2022/02/12 03:58:22;;;;;;;19.42;11.18;;;;;;;;;;5034951;28;20045;-53
2022/02/12 04:00:49;;;;;;;11.32;6.13;;;;;;;;;;5035240;28;20029;-53
2022/02/12 04:03:15;;;;;;;17.42;9.52;;;;;;;;;;5035079;28;20052;-53
2022/02/12 04:05:46;;;;;;;13.30;7.00;;;;;;;;;;5035484;28;20017;-53
2022/02/12 04:08:13;;;;;;;22.92;11.43;;;;;;;;;;5035207;28;20037;-53
2022/02/12 04:10:40;;;;;;;12.23;6.50;;;;;;;;;;5035216;28;20041;-53
2022/02/12 04:13:08;;;;;;;19.90;10.07;;;;;;;;;;5034952;28;20068;-53
2022/02/12 04:15:37;;;;;;;17.95;7.05;;;;;;;;;;5034920;28;20048;-53
2022/02/12 04:18:05;;;;;;;11.05;6.22;;;;;;;;;;5034821;28;20082;-53
2022/02/12 04:20:32;;;;;;;15.80;8.15;;;;;;;;;;5035194;28;20052;-53
2022/02/12 04:23:00;;;;;;;15.60;8.85;;;;;;;;;;5034917;28;20377;-53
2022/02/12 04:25:27;;;;;;;11.60;4.65;;;;;;;;;;5034976;28;20044;-53
2022/02/12 04:27:53;;;;;;;10.30;4.40;;;;;;;;;;5034590;28;20025;-53
2022/02/12 04:30:22;;;;;;;16.55;7.65;;;;;;;;;;5034870;28;20053;-52
2022/02/12 04:32:48;;;;;;;14.38;6.63;;;;;;;;;;5034787;28;20155;-53
2022/02/12 04:35:18;;;;;;;12.68;6.82;;;;;;;;;;5034791;28;20072;-53
2022/02/12 04:37:44;;;;;;;19.08;9.50;;;;;;;;;;5034710;28;20032;-53
2022/02/12 04:40:11;;;;;;;11.60;7.20;;;;;;;;;;5034625;28;20022;-53
2022/02/12 04:42:37;;;;;;;16.20;6.50;;;;;;;;;;5034638;28;20485;-53
2022/02/12 04:45:03;;;;;;;11.65;6.75;;;;;;;;;;5034407;28;20071;-53
2022/02/12 04:47:29;;;;;;;12.88;5.53;;;;;;;;;;5034409;28;20484;-53
2022/02/12 04:49:58;;;;;;;9.68;4.88;;;;;;;;;;5034364;28;20461;-53
2022/02/12 04:52:24;;;;;;;11.38;6.10;;;;;;;;;;5034488;28;20025;-53
2022/02/12 04:54:50;;;;;;;10.50;4.97;;;;;;;;;;5034297;28;20420;-53
2022/02/12 04:57:16;;;;;;;16.63;7.70;;;;;;;;;;5034382;28;20017;-53
2022/02/12 04:59:42;;;;;;;10.00;4.20;;;;;;;;;;5034102;28;20037;-53
2022/02/12 05:02:09;;;;;;;9.75;4.78;;;;;;;;;;5033146;28;20026;-53
2022/02/12 05:04:35;;;;;;;11.50;6.07;;;;;;;;;;5034045;28;20027;-53
2022/02/12 05:07:01;;;;;;;18.30;5.45;;;;;;;;;;5034250;28;20022;-53
2022/02/12 05:09:27;;;;;;;14.52;7.15;;;;;;;;;;5034245;28;20068;-53
2022/02/12 05:11:56;;;;;;;8.05;4.40;;;;;;;;;;5033944;28;20461;-53
2022/02/12 05:14:22;;;;;;;12.55;6.63;;;;;;;;;;5033984;28;20052;-53
2022/02/12 05:16:48;;;;;;;9.93;4.75;;;;;;;;;;5033955;28;20017;-52
2022/02/12 05:19:14;;;;;;;11.27;5.10;;;;;;;;;;5033962;28;20090;-52
2022/02/12 05:21:41;;;;;;;8.95;4.03;;;;;;;;;;5033876;28;20021;-52
2022/02/12 05:24:07;;;;;;;10.25;5.25;;;;;;;;;;5033816;28;20566;-53
2022/02/12 05:26:33;;;;;;;14.18;7.35;;;;;;;;;;5033785;28;20031;-53
2022/02/12 05:28:59;;;;;;;19.83;6.78;;;;;;;;;;5033323;28;20048;-52
2022/02/12 05:31:25;;;;;;;9.45;5.00;;;;;;;;;;5033568;28;20079;-52
2022/02/12 05:33:52;;;;;;;11.60;3.70;;;;;;;;;;5032349;28;20041;-53
2022/02/12 05:36:18;;;;;;;15.10;6.70;;;;;;;;;;5033428;28;20030;-53
2022/02/12 05:38:45;;;;;;;16.02;8.10;;;;;;;;;;5033644;28;20078;-53
2022/02/12 05:41:12;;;;;;;12.55;7.15;;;;;;;;;;5033565;28;20025;-52
2022/02/12 05:43:38;;;;;;;16.95;8.25;;;;;;;;;;5032096;28;20042;-52
2022/02/12 05:46:05;;;;;;;21.10;7.93;;;;;;;;;;5033372;28;20385;-53
2022/02/12 05:48:31;;;;;;;14.27;5.40;;;;;;;;;;5033473;28;20026;-53
2022/02/12 05:50:58;;;;;;;12.52;6.40;;;;;;;;;;5033421;28;20116;-54
2022/02/12 05:53:24;;;;;;;14.70;7.03;;;;;;;;;;5033590;28;20096;-53
2022/02/12 05:55:50;;;;;;;18.30;8.07;;;;;;;;;;5033344;28;20024;-53
2022/02/12 05:58:16;;;;;;;17.85;7.40;;;;;;;;;;5033167;28;20116;-53
2022/02/12 06:00:42;;;;;;;14.60;5.78;;;;;;;;;;5033194;28;20405;-53
2022/02/12 06:03:08;;;;;;;35.63;13.93;;;;;;;;;;5033537;28;20021;-53
2022/02/12 06:05:35;;;;;;;33.05;11.80;;;;;;;;;;5033395;28;20029;-54
2022/02/12 06:08:04;;;;;;;25.83;10.68;;;;;;;;;;5033377;28;20097;-54
2022/02/12 06:10:31;;;;;;;30.40;14.02;;;;;;;;;;5033213;28;20040;-51
2022/02/12 06:12:57;;;;;;;41.83;20.08;;;;;;;;;;5034585;28;20090;-54
2022/02/12 06:15:27;;;;;;;30.30;15.20;;;;;;;;;;5037335;28;20392;-54
2022/02/12 06:17:54;;;;;;;20.52;9.00;;;;;;;;;;5037167;28;20022;-54
2022/02/12 06:20:20;;;;;;;17.27;6.80;;;;;;;;;;5037293;28;20377;-53
2022/02/12 06:22:46;;;;;;;14.07;7.03;;;;;;;;;;5037315;28;20053;-53
2022/02/12 06:25:14;;;;;;;18.10;8.02;;;;;;;;;;5037360;28;20041;-53
2022/02/12 06:27:40;;;;;;;22.80;10.20;;;;;;;;;;5036980;28;20029;-54
2022/02/12 06:30:07;;;;;;;26.83;10.98;;;;;;;;;;5036796;28;20504;-53
2022/02/12 06:32:33;;;;;;;15.35;8.15;;;;;;;;;;5036861;28;20036;-54
2022/02/12 06:35:02;;;;;;;17.10;8.52;;;;;;;;;;5037043;28;20033;-54
2022/02/12 06:37:28;;;;;;;14.13;7.20;;;;;;;;;;5037012;28;20014;-53
2022/02/12 06:39:55;;;;;;;20.17;9.07;;;;;;;;;;5036857;28;20038;-55
2022/02/12 06:42:21;;;;;;;22.42;10.77;;;;;;;;;;5036850;28;20026;-55
2022/02/12 06:44:47;;;;;;;24.02;10.40;;;;;;;;;;5036606;28;20116;-55
2022/02/12 06:47:13;;;;;;;31.25;12.40;;;;;;;;;;5036596;28;20378;-59
2022/02/12 06:49:39;;;;;;;23.27;11.43;;;;;;;;;;5036744;28;20032;-58
2022/02/12 06:52:06;;;;;;;15.00;7.97;;;;;;;;;;5036580;28;20030;-54
2022/02/12 06:54:32;;;;;;;14.88;9.18;;;;;;;;;;5036803;28;20071;-54
2022/02/12 06:56:58;;;;;;;23.13;12.75;;;;;;;;;;5036500;28;20029;-51
2022/02/12 06:59:25;;;;;;;18.98;12.15;;;;;;;;;;5036064;28;20033;-53
2022/02/12 07:01:51;;;;;;;18.55;9.07;;;;;;;;;;5036196;28;20030;-52
2022/02/12 07:04:17;;;;;;;22.90;10.23;;;;;;;;;;5036331;28;20160;-51
2022/02/12 07:06:43;;;;;;;14.07;7.22;;;;;;;;;;5036231;28;20053;-51
2022/02/12 07:09:11;;;;;;;12.55;7.50;;;;;;;;;;5036292;28;20105;-52
2022/02/12 07:11:37;;;;;;;17.52;6.68;;;;;;;;;;5036193;28;20029;-51
2022/02/12 07:14:03;;;;;;;14.10;7.32;;;;;;;;;;5036071;28;20021;-51
2022/02/12 07:16:30;;;;;;;12.82;6.88;;;;;;;;;;5034742;28;20458;-52
2022/02/12 07:18:56;;;;;;;14.43;8.45;;;;;;;;;;5036041;28;20033;-51
2022/02/12 07:21:22;;;;;;;11.85;6.80;;;;;;;;;;5036449;28;20079;-53
2022/02/12 07:23:51;;;;;;;12.55;7.75;;;;;;;;;;5035418;28;20104;-56
2022/02/12 07:26:17;;;;;;;14.75;7.55;;;;;;;;;;5035779;28;20032;-53
2022/02/12 07:28:43;;;;;;;21.83;7.90;;;;;;;;;;5035412;28;20501;-52
2022/02/12 07:31:10;;;;;;;12.07;6.63;;;;;;;;;;5035710;28;20413;-54
2022/02/12 07:33:36;;;;;;;11.13;6.05;;;;;;;;;;5035816;28;20032;-59
2022/02/12 07:36:02;;;;;;;22.10;11.70;;;;;;;;;;5035806;28;20014;-54
2022/02/12 07:38:28;;;;;;;13.63;7.40;;;;;;;;;;5035713;28;20035;-51
2022/02/12 07:40:54;;;;;;;9.77;4.97;;;;;;;;;;5035685;28;20508;-51
2022/02/12 07:43:20;;;;;;;10.25;5.63;;;;;;;;;;5035384;28;20025;-51
2022/02/12 07:45:46;;;;;;;15.70;5.70;;;;;;;;;;5035338;28;20469;-48
2022/02/12 07:48:12;;;;;;;10.60;5.03;;;;;;;;;;5035675;28;20362;-47
2022/02/12 07:50:39;;;;;;;13.88;8.05;;;;;;;;;;5035559;28;20032;-47
2022/02/12 07:53:05;;;;;;;14.25;6.80;;;;;;;;;;5035506;28;20029;-47
2022/02/12 07:55:33;;;;;;;17.83;10.90;;;;;;;;;;5035674;28;20025;-47
2022/02/12 07:57:59;;;;;;;11.07;6.20;;;;;;;;;;5035155;28;20493;-47
2022/02/12 08:00:25;;;;;;;17.85;6.72;;;;;;;;;;5035109;28;20037;-47
2022/02/12 08:02:54;;;;;;;17.13;11.27;;;;;;;;;;5035096;28;20068;-55
2022/02/12 08:05:20;;;;;;;21.00;7.13;;;;;;;;;;5035531;28;20079;-47
2022/02/12 08:07:46;;;;;;;13.70;6.80;;;;;;;;;;5034121;28;20056;-47
2022/02/12 08:13:01;;;;;;;16.05;9.77;;;;;;;;;;5035346;28;20121;-47
2022/02/12 08:15:28;;;;;;;15.50;7.90;;;;;;;;;;5033474;28;20423;-47
2022/02/12 08:17:54;;;;;;;18.77;9.45;;;;;;;;;;5034961;28;20096;-47
2022/02/12 08:20:21;;;;;;;16.48;8.82;;;;;;;;;;5035136;28;20032;-54
2022/02/12 08:22:47;;;;;;;12.60;7.22;;;;;;;;;;5034820;28;20117;-48
2022/02/12 08:25:13;;;;;;;12.82;7.70;;;;;;;;;;5034682;28;20021;-47
2022/02/12 08:27:39;;;;;;;10.93;6.63;;;;;;;;;;5034800;28;20026;-47
2022/02/12 08:30:06;;;;;;;23.00;11.38;;;;;;;;;;5034270;28;20046;-48
2022/02/12 08:32:33;;;;;;;10.65;7.57;;;;;;;;;;5034926;28;20060;-47
2022/02/12 08:34:59;;;;;;;18.40;7.90;;;;;;;;;;5034610;28;20100;-47
2022/02/12 08:37:27;;;;;;;14.48;8.98;;;;;;;;;;5034402;28;20021;-47
2022/02/12 08:39:53;;;;;;;19.35;9.00;;;;;;;;;;5034494;28;20068;-47
2022/02/12 08:42:20;;;;;;;14.77;9.00;;;;;;;;;;5034594;28;20053;-47
2022/02/12 08:44:47;;;;;;;18.17;11.05;;;;;;;;;;5034293;28;20025;-47
2022/02/12 08:47:13;;;;;;;17.60;7.82;;;;;;;;;;5034360;28;20021;-47
2022/02/12 08:49:40;;;;;;;20.45;9.05;;;;;;;;;;5034428;28;20018;-52
2022/02/12 08:52:06;;;;;;;17.77;9.05;;;;;;;;;;5034338;28;20029;-49
2022/02/12 08:54:34;;;;;;;21.08;8.35;;;;;;;;;;5034111;28;20025;-47
2022/02/12 08:57:01;;;;;;;16.38;8.95;;;;;;;;;;5034332;28;20037;-48
2022/02/12 08:59:29;;;;;;;16.85;8.73;;;;;;;;;;5033634;28;20116;-48
2022/02/12 09:01:55;;;;;;;24.65;14.57;;;;;;;;;;5034091;28;20481;-48
2022/02/12 09:04:21;;;;;;;34.53;19.92;;;;;;;;;;5034195;28;20033;-47
2022/02/12 09:06:47;;;;;;;52.85;27.92;;;;;;;;;;5033859;28;20026;-45
2022/02/12 09:09:13;;;;;;;43.67;23.73;;;;;;;;;;5033736;28;20030;-47
2022/02/12 09:11:40;;;;;;;41.92;22.33;;;;;;;;;;5033811;28;20026;-47
2022/02/12 09:14:07;;;;;;;43.75;26.35;;;;;;;;;;5033619;28;20037;-55
2022/02/12 09:16:34;;;;;;;42.28;25.40;;;;;;;;;;5033859;28;20079;-47
2022/02/12 09:19:00;;;;;;;54.45;33.10;;;;;;;;;;5038457;28;20057;-49
2022/02/12 09:21:26;;;;;;;56.28;25.55;;;;;;;;;;5053397;28;20029;-49
2022/02/12 09:23:52;;;;;;;31.17;17.38;;;;;;;;;;5047360;28;20096;-49
2022/02/12 09:26:19;;;;;;;44.30;27.95;;;;;;;;;;5052635;28;20491;-53
2022/02/12 09:28:46;;;;;;;29.83;14.02;;;;;;;;;;5053087;28;20041;-49
2022/02/12 09:31:12;;;;;;;25.67;15.10;;;;;;;;;;5032652;28;20645;-54
2022/02/12 09:33:38;;;;;;;59.00;33.65;;;;;;;;;;5018204;28;20111;-54
2022/02/12 09:36:05;;;;;;;39.33;22.30;;;;;;;;;;5018464;28;20304;-52
2022/02/12 09:38:31;;;;;;;16.10;10.13;;;;;;;;;;5018253;28;20585;-51
2022/02/12 09:40:58;;;;;;;23.00;14.18;;;;;;;;;;5018049;28;20031;-51
2022/02/12 09:43:25;;;;;;;36.47;22.35;;;;;;;;;;5018394;28;20519;-51
2022/02/12 09:45:51;;;;;;;9.18;6.45;;;;;;;;;;5017893;28;20032;-51
2022/02/12 09:48:20;;;;;;;8.13;5.10;;;;;;;;;;5017276;28;20135;-52
2022/02/12 09:50:46;;;;;;;13.60;8.32;;;;;;;;;;5017308;28;20037;-49
2022/02/12 09:53:12;;;;;;;6.10;4.20;;;;;;;;;;5017710;28;20036;-49
2022/02/12 09:55:39;;;;;;;18.00;11.50;;;;;;;;;;5017741;28;20124;-51
2022/02/12 09:58:06;;;;;;;16.27;9.02;;;;;;;;;;5018107;28;20025;-52
2022/02/12 10:00:32;;;;;;;10.07;6.63;;;;;;;;;;5017976;28;20045;-54
2022/02/12 10:02:58;;;;;;;8.70;5.55;;;;;;;;;;5018249;28;20335;-48
2022/02/12 10:05:31;;;;;;;10.77;5.50;;;;;;;;;;5018668;28;20107;-53
2022/02/12 10:08:00;;;;;;;31.00;15.45;;;;;;;;;;5018569;28;20052;-54
2022/02/12 10:10:28;;;;;;;69.03;11.07;;;;;;;;;;5016122;28;21232;-48
2022/02/12 10:13:08;;;;;;;55.15;14.43;;;;;;;;;;5017134;28;20032;-53
2022/02/12 10:15:34;;;;;;;14.17;6.67;;;;;;;;;;5018155;28;21498;-52
2022/02/12 10:18:01;;;;;;;60.80;35.60;;;;;;;;;;5017240;28;20820;-50
2022/02/12 10:20:35;;;;;;;22.27;12.75;;;;;;;;;;5018007;28;20032;-54
2022/02/12 10:23:04;;;;;;;6.07;4.38;;;;;;;;;;5017695;28;20721;-52
2022/02/12 10:25:30;;;;;;;35.20;7.25;;;;;;;;;;5016871;28;20137;-54
2022/02/12 10:27:56;;;;;;;32.30;19.30;;;;;;;;;;5017246;28;20568;-50
2022/02/12 10:30:26;;;;;;;69.68;44.10;;;;;;;;;;5017767;28;20078;-49
2022/02/12 10:32:58;;;;;;;12.68;5.90;;;;;;;;;;5017551;28;20053;-52
2022/02/12 10:35:24;;;;;;;9.27;5.00;;;;;;;;;;5017118;28;20033;-49
2022/02/12 10:37:51;;;;;;;7.15;4.35;;;;;;;;;;5017056;28;20146;-52
2022/02/12 10:40:18;;;;;;;23.45;12.77;;;;;;;;;;5017952;28;20049;-52
2022/02/12 10:42:44;;;;;;;19.33;12.52;;;;;;;;;;5017522;28;20033;-51
2022/02/12 10:45:17;;;;;;;5.75;4.32;;;;;;;;;;5018005;28;20554;-47
2022/02/12 10:47:47;;;;;;;9.70;6.72;;;;;;;;;;5017629;28;20026;-50
2022/02/12 10:50:13;;;;;;;11.30;5.30;;;;;;;;;;5016999;28;20179;-45
2022/02/12 10:52:46;;;;;;;11.95;6.30;;;;;;;;;;5017719;28;20029;-47
2022/02/12 10:55:29;;;;;;;6.65;3.78;;;;;;;;;;5017694;28;20132;-45
2022/02/12 10:57:56;;;;;;;13.13;7.15;;;;;;;;;;5016932;28;20044;-54
2022/02/12 11:00:24;;;;;;;12.23;6.50;;;;;;;;;;5021255;28;20485;-50
2022/02/12 11:02:51;;;;;;;13.52;8.15;;;;;;;;;;5020856;28;20033;-52
2022/02/12 11:05:18;;;;;;;26.00;15.77;;;;;;;;;;5021527;28;20060;-47
2022/02/12 11:07:44;;;;;;;12.77;7.07;;;;;;;;;;5022410;28;21148;-50
2022/02/12 11:10:10;;;;;;;26.83;17.10;;;;;;;;;;5021193;28;20339;-47
2022/02/12 11:12:37;;;;;;;40.78;22.05;;;;;;;;;;5021086;28;20055;-47
2022/02/12 11:15:03;;;;;;;9.77;5.68;;;;;;;;;;5020466;28;20546;-49
2022/02/12 11:17:31;;;;;;;8.73;4.82;;;;;;;;;;5020406;28;20033;-47
2022/02/12 11:19:58;;;;;;;10.02;6.05;;;;;;;;;;5020235;28;20484;-46
2022/02/12 11:22:24;;;;;;;30.80;14.45;;;;;;;;;;5020530;28;20033;-48
2022/02/12 11:24:54;;;;;;;10.52;6.70;;;;;;;;;;5020567;28;20029;-46
2022/02/12 11:27:20;;;;;;;7.97;5.15;;;;;;;;;;5020795;28;20044;-54
2022/02/12 11:29:46;;;;;;;7.40;4.57;;;;;;;;;;5019078;28;21068;-53
2022/02/12 11:32:22;;;;;;;22.33;13.35;;;;;;;;;;5019694;28;20436;-60
2022/02/12 11:34:54;;;;;;;11.57;7.20;;;;;;;;;;5020277;28;20033;-56
2022/02/12 11:37:20;;;;;;;31.55;18.35;;;;;;;;;;5020233;28;20021;-54
2022/02/12 11:40:05;;;;;;;50.30;32.20;;;;;;;;;;5020582;28;20037;-49
2022/02/12 11:42:40;;;;;;;23.63;14.32;;;;;;;;;;5020609;28;20032;-57
2022/02/12 11:45:17;;;;;;;25.60;13.13;;;;;;;;;;5019973;28;20028;-47
2022/02/12 11:48:01;;;;;;;5.93;4.10;;;;;;;;;;5020331;28;20036;-48
2022/02/12 11:50:40;;;;;;;3.47;3.03;;;;;;;;;;5019831;28;20037;-48
2022/02/12 11:53:26;;;;;;;4.10;2.80;;;;;;;;;;5019979;28;20026;-46
2022/02/12 11:55:52;;;;;;;7.20;4.18;;;;;;;;;;5019666;28;20021;-48
2022/02/12 11:58:41;;;;;;;5.32;4.03;;;;;;;;;;5019526;28;20045;-48
2022/02/12 12:01:28;;;;;;;5.10;3.20;;;;;;;;;;5014653;28;20149;-49
2022/02/12 12:04:06;;;;;;;14.80;6.63;;;;;;;;;;5016885;28;20033;-47
2022/02/12 12:06:37;;;;;;;7.95;4.82;;;;;;;;;;5019688;28;20563;-50
2022/02/12 12:09:21;;;;;;;8.60;4.30;;;;;;;;;;5019564;28;20037;-56
2022/02/12 12:12:07;;;;;;;8.88;6.03;;;;;;;;;;5018713;28;20060;-50
2022/02/12 12:14:33;;;;;;;35.28;23.52;;;;;;;;;;5019739;28;20028;-48
2022/02/12 12:17:00;;;;;;;69.07;40.85;;;;;;;;;;5020746;28;20032;-51
2022/02/12 12:19:27;;;;;;;18.33;11.38;;;;;;;;;;5019121;28;20040;-52
2022/02/12 12:21:57;;;;;;;35.03;17.23;;;;;;;;;;5019662;28;20584;-48
2022/02/12 12:24:23;;;;;;;38.95;21.05;;;;;;;;;;5035447;28;20025;-51
2022/02/12 12:26:49;;;;;;;26.30;11.45;;;;;;;;;;5074724;28;20070;-48
2022/02/12 12:32:07;;;;;;;17.10;9.45;;;;;;;;;;5074801;28;20127;-49
2022/02/12 12:34:34;;;;;;;12.02;7.10;;;;;;;;;;5074577;28;20025;-48
2022/02/12 12:37:01;;;;;;;12.05;6.47;;;;;;;;;;5075294;28;20036;-52
2022/02/12 12:39:34;;;;;;;13.70;8.25;;;;;;;;;;5073077;28;20028;-50
2022/02/12 12:42:01;;;;;;;13.15;8.23;;;;;;;;;;5075003;28;20024;-51
2022/02/12 12:44:27;;;;;;;9.85;4.93;;;;;;;;;;5074238;28;20024;-48
2022/02/12 12:46:55;;;;;;;8.85;5.50;;;;;;;;;;5074499;28;20515;-52
2022/02/12 12:49:34;;;;;;;8.40;5.45;;;;;;;;;;5074365;28;20072;-48
2022/02/12 12:52:01;;;;;;;9.70;5.68;;;;;;;;;;5074469;28;20104;-49
2022/02/12 12:54:32;;;;;;;15.23;8.63;;;;;;;;;;5074075;28;20025;-48
2022/02/12 12:56:59;;;;;;;8.30;5.50;;;;;;;;;;5074003;28;20021;-48
2022/02/12 12:59:26;;;;;;;14.75;8.25;;;;;;;;;;5074251;28;20040;-48
2022/02/12 13:01:55;;;;;;;7.25;5.10;;;;;;;;;;5074498;28;20052;-49
2022/02/12 13:04:21;;;;;;;10.63;6.13;;;;;;;;;;5074128;28;20029;-48
2022/02/12 13:06:51;;;;;;;6.95;3.40;;;;;;;;;;5073972;28;20028;-51
2022/02/12 13:09:20;;;;;;;7.22;4.10;;;;;;;;;;5073942;28;20399;-48
2022/02/12 13:11:46;;;;;;;14.18;9.20;;;;;;;;;;5073798;28;20078;-49
2022/02/12 13:14:12;;;;;;;14.48;6.75;;;;;;;;;;5074183;28;20031;-54
2022/02/12 13:16:42;;;;;;;8.15;4.60;;;;;;;;;;5073914;28;20043;-48
2022/02/12 13:19:11;;;;;;;8.48;4.93;;;;;;;;;;5073632;28;20111;-48
2022/02/12 13:21:37;;;;;;;7.13;4.65;;;;;;;;;;5073560;28;20070;-48
2022/02/12 13:24:07;;;;;;;5.47;4.05;;;;;;;;;;5073055;28;20040;-47
2022/02/12 13:26:37;;;;;;;6.55;4.85;;;;;;;;;;5073894;28;20025;-49
2022/02/12 13:29:03;;;;;;;9.60;5.70;;;;;;;;;;5073586;28;20047;-48
2022/02/12 13:31:29;;;;;;;6.63;4.30;;;;;;;;;;5073560;28;20056;-57
2022/02/12 13:34:03;;;;;;;7.97;5.53;;;;;;;;;;5073764;28;20413;-51
2022/02/12 13:36:30;;;;;;;7.63;5.25;;;;;;;;;;5073795;28;20560;-54
2022/02/12 13:39:05;;;;;;;9.05;5.70;;;;;;;;;;5073823;28;20526;-49
2022/02/12 13:41:39;;;;;;;9.68;5.40;;;;;;;;;;5073876;28;20481;-48
2022/02/12 13:44:05;;;;;;;12.93;7.55;;;;;;;;;;5073698;28;20040;-52
2022/02/12 13:46:38;;;;;;;11.25;6.40;;;;;;;;;;5073670;28;20530;-49
2022/02/12 13:49:21;;;;;;;9.65;6.45;;;;;;;;;;5073428;28;20112;-49
2022/02/12 13:51:56;;;;;;;9.43;6.47;;;;;;;;;;5073649;28;20472;-49
2022/02/12 13:54:23;;;;;;;11.18;6.60;;;;;;;;;;5073661;28;20048;-51
2022/02/12 13:56:51;;;;;;;9.40;5.03;;;;;;;;;;5073585;28;20021;-48
2022/02/12 13:59:18;;;;;;;10.75;5.05;;;;;;;;;;5073418;28;20041;-49
2022/02/12 14:01:45;;;;;;;11.43;6.40;;;;;;;;;;5073526;28;20495;-50
2022/02/12 14:04:12;;;;;;;9.38;5.82;;;;;;;;;;5073526;28;20028;-48
2022/02/12 14:06:38;;;;;;;11.25;5.07;;;;;;;;;;5073233;28;20074;-48
2022/02/12 14:09:04;;;;;;;8.85;6.07;;;;;;;;;;5073130;28;20025;-48
2022/02/12 14:11:30;;;;;;;11.30;6.43;;;;;;;;;;5073275;28;20160;-51
2022/02/12 14:13:57;;;;;;;10.38;6.07;;;;;;;;;;5073266;28;20021;-52
2022/02/12 14:16:23;;;;;;;8.98;5.50;;;;;;;;;;5073186;28;20027;-48
2022/02/12 14:18:50;;;;;;;9.45;6.00;;;;;;;;;;5073182;28;20048;-48
2022/02/12 14:21:17;;;;;;;8.18;4.82;;;;;;;;;;5073050;28;20082;-48
2022/02/12 14:23:43;;;;;;;8.40;5.07;;;;;;;;;;5073095;28;20029;-49
2022/02/12 14:26:09;;;;;;;8.48;5.63;;;;;;;;;;5073226;28;20035;-49
2022/02/12 14:28:35;;;;;;;12.60;7.43;;;;;;;;;;5073266;28;20056;-49
2022/02/12 14:31:06;;;;;;;10.55;6.18;;;;;;;;;;5073297;28;20029;-48
2022/02/12 14:33:34;;;;;;;9.73;5.27;;;;;;;;;;5073479;28;20569;-58
2022/02/12 14:36:01;;;;;;;7.53;4.63;;;;;;;;;;5077144;28;20029;-48
2022/02/12 14:38:31;;;;;;;8.95;4.95;;;;;;;;;;5076580;28;20017;-50
2022/02/12 14:40:59;;;;;;;8.43;5.32;;;;;;;;;;5076843;28;20032;-51